Time;durP1;ratioP1;P1;durP2;ratioP2;P2;SDS_P1;SDS_P2;PMS_P1;PMS_P2;Temp;Humidity;BMP_temperature;BMP_pressure;BME280_temperature;BME280_humidity;BME280_pressure;Samples;Min_cycle;Max_cycle;Signal;HPM_P1;HPM_P2
2023/07/06 00:00:14;;;;;;;;;8.00;7.00;;;;;16.61;96.16;101602.41;6185556;23;46162;-78
2023/07/06 00:02:39;;;;;;;;;8.67;7.00;;;;;16.59;96.00;101598.94;6184729;23;45286;-78
2023/07/06 00:05:05;;;;;;;;;8.67;7.00;;;;;16.56;96.01;101596.47;6157963;23;45466;-78
2023/07/06 00:07:31;;;;;;;;;6.33;5.00;;;;;16.62;97.37;101617.47;6158374;23;45326;-78
2023/07/06 00:09:56;;;;;;;;;7.00;6.00;;;;;16.62;96.98;101627.31;6157003;23;46707;-78
2023/07/06 00:12:24;;;;;;;;;6.00;6.00;;;;;16.49;97.54;101604.91;6185522;23;45269;-78
2023/07/06 00:14:52;;;;;;;;;7.00;5.00;;;;;16.45;97.32;101608.72;6158674;23;45219;-78
2023/07/06 00:17:18;;;;;;;;;6.00;6.00;;;;;16.53;98.52;101622.44;6185544;23;45304;-78
2023/07/06 00:19:43;;;;;;;;;6.00;6.00;;;;;16.49;98.73;101629.78;6184682;23;45341;-78
2023/07/06 00:22:10;;;;;;;;;7.00;6.00;;;;;16.44;97.61;101629.19;6184829;23;45350;-78
2023/07/06 00:24:36;;;;;;;;;5.67;5.67;;;;;16.45;98.50;101627.41;6185306;23;45428;-78
2023/07/06 00:27:02;;;;;;;;;5.67;5.33;;;;;16.37;97.68;101630.50;6185168;23;45232;-77
2023/07/06 00:29:33;;;;;;;;;7.67;5.67;;;;;16.37;98.28;101626.97;6184724;23;45355;-78
2023/07/06 00:32:15;;;;;;;;;7.33;6.67;;;;;16.35;98.37;101632.41;6186021;23;45348;-77
2023/07/06 00:34:41;;;;;;;;;10.00;8.67;;;;;16.36;97.92;101633.28;6184066;23;45363;-78
2023/07/06 00:37:06;;;;;;;;;7.00;6.00;;;;;16.21;98.37;101610.97;6182764;23;45528;-77
2023/07/06 00:39:32;;;;;;;;;6.33;6.33;;;;;16.23;96.48;101622.41;6184999;23;45429;-77
2023/07/06 00:41:58;;;;;;;;;7.67;7.00;;;;;16.33;97.29;101636.13;6185282;23;48851;-77
2023/07/06 00:44:47;;;;;;;;;7.33;7.33;;;;;16.34;97.77;101638.69;6184643;23;45343;-77
2023/07/06 00:47:12;;;;;;;;;10.67;9.67;;;;;16.34;98.55;101637.81;6182284;23;45463;-78
2023/07/06 00:49:39;;;;;;;;;9.67;8.67;;;;;16.17;98.16;101615.63;6185929;23;46107;-78
2023/07/06 00:52:05;;;;;;;;;7.67;7.67;;;;;16.30;98.51;101633.59;6160440;23;45290;-78
2023/07/06 00:54:31;;;;;;;;;5.67;4.33;;;;;16.13;98.54;101613.25;6184268;23;45285;-78
2023/07/06 00:56:58;;;;;;;;;9.00;9.00;;;;;16.14;98.05;101614.94;6184753;23;45270;-77
2023/07/06 00:59:26;;;;;;;;;9.33;8.00;;;;;16.09;98.75;101606.38;6186701;23;45942;-78
2023/07/06 01:01:52;;;;;;;;;7.33;6.00;;;;;16.15;99.46;101622.88;6188364;23;45333;-78
2023/07/06 01:04:19;;;;;;;;;6.33;6.33;;;;;16.17;99.55;101645.00;6188080;23;45251;-78
2023/07/06 01:06:51;;;;;;;;;7.67;6.33;;;;;16.14;97.81;101644.31;6160302;23;45341;-78
2023/07/06 01:09:19;;;;;;;;;6.00;6.00;;;;;16.15;99.54;101646.91;6188030;23;45218;-78
2023/07/06 01:11:45;;;;;;;;;8.00;7.00;;;;;16.11;98.54;101648.03;6186190;23;45174;-78
2023/07/06 01:14:12;;;;;;;;;6.00;6.00;;;;;16.10;97.83;101640.94;6185687;23;45502;-77
2023/07/06 01:16:54;;;;;;;;;7.67;7.67;;;;;15.96;98.59;101632.88;6185454;23;45552;-78
2023/07/06 01:19:26;;;;;;;;;5.33;5.00;;;;;16.08;98.31;101650.84;6183491;23;45899;-78
2023/07/06 01:22:22;;;;;;;;;7.00;7.00;;;;;15.95;97.76;101628.50;6183799;23;45306;-78
2023/07/06 01:25:00;;;;;;;;;6.00;6.00;;;;;16.02;97.66;101643.22;6157590;23;45234;-78
2023/07/06 01:27:48;;;;;;;;;7.67;6.67;;;;;16.02;98.50;101645.00;6184542;23;45196;-78
2023/07/06 01:30:52;;;;;;;;;7.33;6.00;;;;;15.98;98.77;101641.66;6157743;23;45379;-78
2023/07/06 01:33:35;;;;;;;;;5.67;4.00;;;;;15.92;99.63;101635.78;6184369;23;45345;-77
2023/07/06 01:36:09;;;;;;;;;8.33;6.00;;;;;15.92;nan;101647.34;6182592;23;45390;-78
2023/07/06 01:38:36;;;;;;;;;8.00;6.33;;;;;15.87;100.00;101641.38;6157308;23;45511;-78
2023/07/06 01:41:01;;;;;;;;;7.00;7.00;;;;;15.84;99.94;101641.56;6157675;23;45356;-78
2023/07/06 01:43:28;;;;;;;;;7.33;5.67;;;;;15.69;99.84;101620.22;6184497;23;46640;-78
2023/07/06 01:45:53;;;;;;;;;5.00;5.00;;;;;15.74;100.00;101627.00;6185276;23;45290;-78
2023/07/06 01:48:20;;;;;;;;;5.67;5.33;;;;;15.69;100.00;101622.88;6183787;23;45250;-78
2023/07/06 01:51:21;;;;;;;;;7.00;5.00;;;;;15.77;100.00;101636.66;6156984;23;45479;-78
2023/07/06 01:54:09;;;;;;;;;8.67;6.67;;;;;15.75;100.00;101639.41;6184456;23;45207;-78
2023/07/06 01:56:44;;;;;;;;;8.33;6.00;;;;;15.69;100.00;101620.22;6184470;23;45449;-78
2023/07/06 01:59:17;;;;;;;;;9.00;6.00;;;;;15.65;100.00;101614.19;6184702;23;45419;-78
2023/07/06 02:01:48;;;;;;;;;8.00;7.00;;;;;15.63;100.00;101613.41;6156572;23;45550;-78
2023/07/06 02:04:14;;;;;;;;;8.00;6.00;;;;;15.67;100.00;101622.97;6184896;23;45249;-78
2023/07/06 02:06:41;;;;;;;;;7.00;7.00;;;;;15.68;100.00;101618.47;6159066;23;45247;-77
2023/07/06 02:09:14;;;;;;;;;6.33;5.67;;;;;15.65;100.00;101624.84;6185714;23;45199;-78
2023/07/06 02:11:39;;;;;;;;;8.33;7.00;;;;;15.52;100.00;101600.66;6186098;23;46214;-77
2023/07/06 02:14:04;;;;;;;;;7.00;7.00;;;;;15.32;100.00;101578.66;6185475;23;45336;-77
2023/07/06 02:16:30;;;;;;;;;9.67;7.00;;;;;15.60;100.00;101618.91;6158939;23;45283;-78
2023/07/06 02:18:58;;;;;;;;;9.33;6.67;;;;;15.55;100.00;101616.50;6185061;23;50698;-78
2023/07/06 02:21:24;;;;;;;;;7.67;6.00;;;;;15.54;100.00;101617.44;6184243;23;45431;-78
2023/07/06 02:23:49;;;;;;;;;6.00;5.67;;;;;15.47;100.00;101609.84;6183660;23;45559;-78
2023/07/06 02:26:15;;;;;;;;;7.00;6.33;;;;;15.52;100.00;101621.13;6185961;23;46543;-78
2023/07/06 02:28:42;;;;;;;;;7.00;6.00;;;;;15.49;100.00;101621.31;6186523;23;45344;-77
2023/07/06 02:31:07;;;;;;;;;11.00;8.00;;;;;15.43;100.00;101613.59;6188449;23;45460;-78
2023/07/06 02:33:34;;;;;;;;;5.00;4.33;;;;;15.44;100.00;101620.66;6160056;23;45502;-78
2023/07/06 02:35:59;;;;;;;;;5.33;5.33;;;;;15.39;100.00;101628.03;6159914;23;45315;-77
2023/07/06 02:38:25;;;;;;;;;8.33;8.00;;;;;15.38;100.00;101619.19;6188082;23;45433;-78
2023/07/06 02:40:50;;;;;;;;;5.33;5.33;;;;;15.27;100.00;101612.72;6190073;23;46558;-78
2023/07/06 02:43:16;;;;;;;;;7.00;7.00;;;;;15.15;100.00;101592.06;6162973;23;45671;-78
2023/07/06 02:45:47;;;;;;;;;6.00;6.00;;;;;15.18;100.00;101606.09;6188364;23;45461;-78
2023/07/06 02:48:12;;;;;;;;;5.33;5.00;;;;;15.23;100.00;101625.34;6188762;23;45328;-78
2023/07/06 02:50:38;;;;;;;;;7.00;6.00;;;;;15.27;100.00;101636.69;6185212;23;45937;-79
2023/07/06 02:53:03;;;;;;;;;8.67;8.67;;;;;15.15;100.00;101616.88;6159222;23;45339;-78
2023/07/06 02:55:29;;;;;;;;;8.00;6.67;;;;;15.24;100.00;101631.53;6159696;23;45572;-78
2023/07/06 02:57:55;;;;;;;;;9.67;8.67;;;;;15.21;100.00;101629.91;6159669;23;45337;-78
2023/07/06 03:00:22;;;;;;;;;6.33;6.33;;;;;15.16;100.00;101633.72;6186122;23;45308;-79
2023/07/06 03:02:50;;;;;;;;;6.67;5.67;;;;;15.19;100.00;101641.56;6183415;23;45390;-78
2023/07/06 03:05:22;;;;;;;;;7.00;7.00;;;;;15.06;100.00;101623.56;6186051;23;45500;-78
2023/07/06 03:07:49;;;;;;;;;9.33;9.33;;;;;15.15;100.00;101640.84;6158255;23;45260;-78
2023/07/06 03:10:17;;;;;;;;;6.00;6.00;;;;;15.10;100.00;101630.47;6186003;23;45227;-77
2023/07/06 03:12:43;;;;;;;;;6.67;6.67;;;;;15.00;100.00;101613.25;6185021;23;45219;-78
2023/07/06 03:15:10;;;;;;;;;12.75;11.25;;;;;15.07;100.00;101640.41;6185798;23;45230;-78
2023/07/06 03:17:36;;;;;;;;;7.67;7.67;;;;;15.01;100.00;101630.97;6157841;23;45243;-78
2023/07/06 03:20:12;;;;;;;;;9.00;9.00;;;;;14.95;100.00;101631.25;6185855;23;45214;-79
2023/07/06 03:22:37;;;;;;;;;8.00;7.67;;;;;15.03;100.00;101646.84;6183572;23;45323;-77
2023/07/06 03:25:05;;;;;;;;;14.50;9.50;;;;;14.93;100.00;101633.16;6184939;23;45222;-78
2023/07/06 03:27:31;;;;;;;;;9.67;8.00;;;;;14.77;100.00;101607.38;6185097;23;45496;-78
2023/07/06 03:29:56;;;;;;;;;11.67;9.67;;;;;14.93;100.00;101630.47;6157936;23;46218;-78
2023/07/06 03:32:22;;;;;;;;;12.50;10.50;;;;;14.84;100.00;101620.31;6185164;23;45360;-78
2023/07/06 03:34:47;;;;;;;;;9.33;9.33;;;;;14.88;100.00;101637.00;6184631;23;45589;-78
2023/07/06 03:37:12;;;;;;;;;8.00;8.00;;;;;14.90;100.00;101637.75;6183961;23;45276;-78
2023/07/06 03:39:38;;;;;;;;;16.67;16.00;;;;;14.88;100.00;101639.66;6185006;23;45238;-78
2023/07/06 03:42:03;;;;;;;;;15.00;15.00;;;;;14.83;100.00;101631.03;6158705;23;45308;-78
2023/07/06 03:44:29;;;;;;;;;17.33;15.00;;;;;14.82;100.00;101630.16;6186077;23;45308;-78
2023/07/06 03:46:54;;;;;;;;;17.00;15.33;;;;;14.80;100.00;101640.03;6157120;23;45360;-78
2023/07/06 03:49:19;;;;;;;;;9.00;7.00;;;;;14.76;100.00;101629.63;6158748;23;47004;-78
2023/07/06 03:51:46;;;;;;;;;9.00;9.00;;;;;14.66;100.00;101623.06;6184525;23;45293;-78
2023/07/06 03:54:12;;;;;;;;;9.00;8.00;;;;;14.72;100.00;101634.25;6158852;23;45166;-78
2023/07/06 03:56:37;;;;;;;;;6.00;5.33;;;;;14.75;100.00;101643.88;6185560;23;45489;-78
2023/07/06 03:59:05;;;;;;;;;10.00;10.00;;;;;14.71;100.00;101629.00;6185753;23;45336;-78
2023/07/06 04:01:33;;;;;;;;;8.00;8.00;;;;;14.49;100.00;101594.63;6183979;23;45356;-78
2023/07/06 04:03:59;;;;;;;;;11.00;9.33;;;;;14.70;100.00;101641.44;6184354;23;45321;-78
2023/07/06 04:06:26;;;;;;;;;8.33;8.00;;;;;14.69;100.00;101649.53;6185433;23;45244;-78
2023/07/06 04:08:56;;;;;;;;;11.00;9.67;;;;;14.67;100.00;101649.59;6184953;23;46533;-78
2023/07/06 04:11:22;;;;;;;;;8.67;8.67;;;;;14.67;100.00;101646.06;6185352;23;45340;-78
2023/07/06 04:13:49;;;;;;;;;9.33;8.67;;;;;14.58;100.00;101640.28;6161468;23;45257;-78
2023/07/06 04:16:16;;;;;;;;;9.67;8.00;;;;;14.63;100.00;101648.03;6189325;23;45259;-78
2023/07/06 04:18:44;;;;;;;;;10.67;9.67;;;;;14.66;100.00;101652.34;6161224;23;45617;-78
2023/07/06 04:21:19;;;;;;;;;11.00;11.00;;;;;14.62;100.00;101646.31;6187695;23;45394;-78
2023/07/06 04:23:48;;;;;;;;;10.00;10.00;;;;;14.64;100.00;101641.75;6160402;23;45339;-78
2023/07/06 04:26:14;;;;;;;;;9.33;8.67;;;;;14.55;100.00;101621.81;6184505;23;45248;-78
2023/07/06 04:28:40;;;;;;;;;17.00;11.33;;;;;14.50;100.00;101606.97;6158247;23;45434;-77
2023/07/06 04:31:06;;;;;;;;;10.33;9.00;;;;;14.73;100.00;101648.41;6184739;23;45200;-78
2023/07/06 04:33:32;;;;;;;;;12.67;9.00;;;;;14.75;100.00;101643.88;6184402;23;45171;-77
2023/07/06 04:35:57;;;;;;;;;10.33;10.00;;;;;14.73;100.00;101641.28;6184951;23;45224;-78
2023/07/06 04:38:26;;;;;;;;;12.00;10.33;;;;;14.68;100.00;101623.84;6184982;23;45631;-78
2023/07/06 04:40:52;;;;;;;;;7.00;6.00;;;;;14.67;100.00;101619.44;6158042;23;45262;-77
2023/07/06 04:43:17;;;;;;;;;9.00;9.00;;;;;14.69;100.00;101629.06;6185581;23;45355;-78
2023/07/06 04:45:44;;;;;;;;;9.00;6.67;;;;;14.82;100.00;101643.47;6185675;23;45270;-77
2023/07/06 04:48:10;;;;;;;;;7.00;7.00;;;;;14.92;100.00;101650.06;6185188;23;46008;-77
2023/07/06 04:50:37;;;;;;;;;7.00;7.00;;;;;14.83;100.00;101636.34;6184874;23;45353;-77
2023/07/06 04:53:04;;;;;;;;;9.00;9.00;;;;;14.97;100.00;101644.50;6185344;23;45310;-77
2023/07/06 04:55:31;;;;;;;;;5.67;5.67;;;;;15.07;100.00;101656.41;6158532;23;45302;-77
2023/07/06 04:58:00;;;;;;;;;10.00;9.67;;;;;15.03;100.00;101647.72;6185241;23;46119;-77
2023/07/06 05:00:31;;;;;;;;;9.33;9.00;;;;;15.15;100.00;101659.50;6184298;23;45295;-77
2023/07/06 05:03:00;;;;;;;;;10.00;9.00;;;;;15.20;100.00;101660.16;6183240;23;45298;-77
2023/07/06 05:05:28;;;;;;;;;10.67;9.33;;;;;15.06;100.00;101628.91;6184853;23;45178;-77
2023/07/06 05:07:55;;;;;;;;;11.67;9.67;;;;;15.27;100.00;101652.69;6184662;23;46089;-78
2023/07/06 05:10:20;;;;;;;;;8.67;8.00;;;;;15.37;100.00;101668.13;6185513;23;45496;-78
2023/07/06 05:12:46;;;;;;;;;14.67;13.67;;;;;15.46;100.00;101670.28;6157096;23;45390;-78
2023/07/06 05:15:13;;;;;;;;;10.00;10.00;;;;;15.50;100.00;101665.69;6185052;23;45269;-78
2023/07/06 05:17:39;;;;;;;;;10.75;10.00;;;;;15.58;100.00;101663.47;6158079;23;47435;-78
2023/07/06 05:20:06;;;;;;;;;14.75;12.50;;;;;15.67;100.00;101670.97;6182374;23;45280;-78
2023/07/06 05:22:32;;;;;;;;;11.00;10.00;;;;;15.66;100.00;101663.03;6156535;23;45278;-78
2023/07/06 05:24:57;;;;;;;;;9.33;9.00;;;;;15.77;100.00;101674.84;6184953;23;45219;-78
2023/07/06 05:27:24;;;;;;;;;11.33;10.00;;;;;15.86;100.00;101671.69;6184672;23;46266;-78
2023/07/06 05:29:50;;;;;;;;;7.00;7.00;;;;;15.81;100.00;101656.88;6157209;23;45330;-78
2023/07/06 05:32:15;;;;;;;;;13.00;11.00;;;;;15.93;100.00;101664.22;6156868;23;45311;-78
2023/07/06 05:34:41;;;;;;;;;12.00;11.33;;;;;16.10;100.00;101678.31;6183962;23;45277;-78
2023/07/06 05:37:06;;;;;;;;;10.33;8.67;;;;;16.18;100.00;101680.56;6157332;23;46428;-78
2023/07/06 05:39:31;;;;;;;;;13.00;9.67;;;;;16.06;100.00;101638.56;6186720;23;45346;-78
2023/07/06 05:41:56;;;;;;;;;12.00;10.67;;;;;16.32;100.00;101672.63;6186100;23;45266;-78
2023/07/06 05:44:22;;;;;;;;;13.00;10.00;;;;;16.42;100.00;101670.31;6185140;23;50365;-78
2023/07/06 05:46:47;;;;;;;;;11.33;9.67;;;;;16.50;100.00;101686.72;6189816;23;45338;-78
2023/07/06 05:49:12;;;;;;;;;10.67;10.67;;;;;16.55;100.00;101676.69;6190613;23;45278;-78
2023/07/06 05:51:38;;;;;;;;;12.67;9.00;;;;;16.59;99.16;101659.50;6163406;23;45283;-78
2023/07/06 05:54:03;;;;;;;;;9.67;9.67;;;;;16.73;100.00;101670.25;6162974;23;45238;-79
2023/07/06 05:56:32;;;;;;;;;11.67;10.33;;;;;16.72;99.87;101665.03;6160594;23;47313;-79
2023/07/06 05:59:00;;;;;;;;;11.00;11.00;;;;;16.91;100.00;101676.34;6158814;23;45250;-79
2023/07/06 06:01:26;;;;;;;;;14.33;13.33;;;;;16.90;100.00;101662.09;6182633;23;45727;-77
2023/07/06 06:03:52;;;;;;;;;13.00;10.00;;;;;17.07;100.00;101674.47;6158218;23;45288;-78
2023/07/06 06:06:21;;;;;;;;;12.00;11.00;;;;;17.17;100.00;101672.94;6157189;23;45427;-78
2023/07/06 06:08:47;;;;;;;;;11.67;9.67;;;;;17.21;94.09;101677.16;6157553;23;45190;-78
2023/07/06 06:11:15;;;;;;;;;12.33;9.33;;;;;17.19;93.23;101661.22;6185968;23;45361;-78
2023/07/06 06:13:40;;;;;;;;;12.67;11.67;;;;;17.31;97.79;101669.44;6186072;23;45372;-78
2023/07/06 06:16:08;;;;;;;;;9.67;7.67;;;;;17.43;98.03;101674.03;6158672;23;46608;-78
2023/07/06 06:18:34;;;;;;;;;9.00;8.00;;;;;17.56;91.31;101691.94;6158315;23;45279;-78
2023/07/06 06:20:59;;;;;;;;;9.67;9.33;;;;;17.58;90.79;101673.97;6186050;23;49458;-78
2023/07/06 06:23:25;;;;;;;;;10.67;9.33;;;;;17.73;86.17;101696.25;6159015;23;45293;-77
2023/07/06 06:25:51;;;;;;;;;9.67;8.00;;;;;17.73;85.38;101687.34;6186208;23;45295;-77
2023/07/06 06:28:16;;;;;;;;;10.00;9.67;;;;;17.87;83.69;101687.31;6184884;23;45414;-77
2023/07/06 06:30:41;;;;;;;;;11.33;10.00;;;;;17.87;83.28;101674.78;6186397;23;45228;-78
2023/07/06 06:33:07;;;;;;;;;10.00;10.00;;;;;18.11;84.15;101694.66;6158668;23;45241;-78
2023/07/06 06:35:34;;;;;;;;;5.00;5.00;;;;;18.19;83.31;101697.69;6158468;23;45496;-77
2023/07/06 06:38:03;;;;;;;;;13.00;11.50;;;;;18.19;85.41;101688.81;6185708;23;45297;-78
2023/07/06 06:40:29;;;;;;;;;8.67;8.67;;;;;18.34;81.65;101692.31;6185698;23;45183;-78
2023/07/06 06:42:54;;;;;;;;;14.00;12.25;;;;;18.37;82.08;101690.28;6185680;23;45228;-78
2023/07/06 06:45:21;;;;;;;;;11.00;9.00;;;;;18.46;80.48;101683.44;6185698;23;46343;-78
2023/07/06 06:47:47;;;;;;;;;14.75;13.00;;;;;18.59;82.26;101685.25;6185915;23;45298;-78
2023/07/06 06:50:14;;;;;;;;;9.00;9.00;;;;;18.66;79.64;101686.56;6185611;23;45315;-78
2023/07/06 06:52:40;;;;;;;;;11.67;10.33;;;;;18.82;77.13;101705.16;6158625;23;45357;-78
2023/07/06 06:55:07;;;;;;;;;10.33;10.33;;;;;18.93;77.62;101693.72;6158836;23;46697;-79
2023/07/06 06:57:32;;;;;;;;;10.67;8.33;;;;;18.91;77.65;101674.22;6158352;23;45253;-80
2023/07/06 06:59:59;;;;;;;;;13.00;10.33;;;;;19.15;79.68;101702.00;6158254;23;45354;-79
2023/07/06 07:02:25;;;;;;;;;14.25;12.50;;;;;19.25;76.77;101695.03;6183754;23;45235;-79
2023/07/06 07:04:50;;;;;;;;;18.00;13.75;;;;;19.36;76.56;101703.22;6185722;23;45223;-78
2023/07/06 07:07:16;;;;;;;;;9.75;9.75;;;;;19.36;74.81;101680.91;6183951;23;45253;-79
2023/07/06 07:09:44;;;;;;;;;14.00;10.33;;;;;19.60;74.13;101708.75;6184227;23;45266;-79
2023/07/06 07:12:10;;;;;;;;;5.33;5.33;;;;;19.61;76.82;101695.19;6185460;23;45329;-79
2023/07/06 07:14:36;;;;;;;;;11.25;9.75;;;;;19.70;75.27;101691.00;6159243;23;45560;-79
2023/07/06 07:17:03;;;;;;;;;14.25;12.50;;;;;19.81;71.97;101692.91;6186017;23;45294;-78
2023/07/06 07:19:28;;;;;;;;;18.75;17.50;;;;;20.02;71.00;101712.88;6162040;23;45314;-78
2023/07/06 07:21:55;;;;;;;;;13.75;13.00;;;;;20.15;71.55;101708.34;6190232;23;45135;-78
2023/07/06 07:24:20;;;;;;;;;30.00;29.50;;;;;20.08;68.69;101685.56;6190206;23;45959;-78
2023/07/06 07:26:48;;;;;;;;;28.50;26.50;;;;;20.28;66.73;101695.75;6190434;23;45162;-79
2023/07/06 07:29:14;;;;;;;;;14.25;12.50;;;;;20.40;70.65;101696.66;6189600;23;45301;-79
2023/07/06 07:31:41;;;;;;;;;21.75;20.75;;;;;20.46;67.89;101686.31;6159657;23;45384;-79
2023/07/06 07:34:07;;;;;;;;;26.00;26.00;;;;;20.69;68.18;101696.22;6159760;23;45642;-79
2023/07/06 07:36:35;;;;;;;;;24.75;24.25;;;;;20.81;68.36;101696.28;6186310;23;45235;-79
2023/07/06 07:39:01;;;;;;;;;20.25;20.25;;;;;20.73;66.58;101668.13;6185786;23;45277;-79
2023/07/06 07:41:26;;;;;;;;;23.75;22.00;;;;;21.02;65.05;101700.00;6185609;23;45192;-80
2023/07/06 07:43:51;;;;;;;;;12.75;12.50;;;;;21.13;66.66;101695.56;6158825;23;46390;-80
2023/07/06 07:46:21;;;;;;;;;10.00;7.75;;;;;21.13;64.97;101667.78;6185822;23;45206;-80
2023/07/06 07:48:53;;;;;;;;;12.00;11.50;;;;;21.24;63.81;101674.03;6186120;23;45306;-80
2023/07/06 07:51:26;;;;;;;;;15.50;15.50;;;;;21.35;62.45;101685.81;6185408;23;45306;-79
2023/07/06 07:53:56;;;;;;;;;11.00;11.00;;;;;21.32;62.79;101664.50;6185521;23;46020;-80
2023/07/06 07:56:26;;;;;;;;;11.75;11.25;;;;;21.56;65.26;101694.91;6184892;23;45381;-80
2023/07/06 07:58:53;;;;;;;;;16.75;16.75;;;;;21.52;63.29;101669.19;6185017;22;45292;-80
2023/07/06 08:01:27;;;;;;;;;8.50;8.50;;;;;21.67;64.20;101665.25;6158757;23;45543;-80
2023/07/06 08:03:57;;;;;;;;;11.50;11.50;;;;;21.56;62.21;101625.72;6185966;23;45332;-80
2023/07/06 08:06:23;;;;;;;;;14.25;14.25;;;;;22.08;62.25;101691.63;6185518;23;45349;-80
2023/07/06 08:08:48;;;;;;;;;12.75;12.75;;;;;21.83;63.66;101636.97;6186323;23;45313;-80
2023/07/06 08:11:16;;;;;;;;;20.75;20.75;;;;;22.02;61.44;101633.66;6186404;23;45636;-80
2023/07/06 08:13:45;;;;;;;;;23.25;23.25;;;;;22.30;58.76;101670.88;6186132;23;45273;-78
2023/07/06 08:16:12;;;;;;;;;14.00;11.75;;;;;22.42;60.35;101662.72;6185418;23;45340;-79
2023/07/06 08:18:38;;;;;;;;;27.75;27.75;;;;;22.49;58.97;101672.03;6158805;23;45251;-80
2023/07/06 08:21:05;;;;;;;;;31.00;28.50;;;;;22.70;59.14;101672.97;6185240;23;45225;-80
2023/07/06 08:23:31;;;;;;;;;18.75;18.75;;;;;22.83;59.90;101670.94;6158029;23;48049;-80
2023/07/06 08:25:57;;;;;;;;;36.00;33.67;;;;;22.96;56.62;101673.44;6185759;23;45254;-79
2023/07/06 08:28:29;;;;;;;;;22.25;20.25;;;;;22.96;57.32;101668.06;6184855;23;45331;-80
2023/07/06 08:30:54;;;;;;;;;40.25;36.25;;;;;23.01;57.83;101653.19;6158380;23;45428;-79
2023/07/06 08:33:21;;;;;;;;;19.75;19.75;;;;;23.05;59.67;101640.28;6185492;23;46372;-79
2023/07/06 08:35:47;;;;;;;;;15.00;14.67;;;;;23.30;55.83;101664.16;6185678;23;45219;-79
2023/07/06 08:38:15;;;;;;;;;47.67;40.67;;;;;23.19;55.08;101642.66;6185363;23;45313;-80
2023/07/06 08:40:48;;;;;;;;;44.00;37.67;;;;;23.39;56.28;101662.50;6185111;23;45373;-79
2023/07/06 08:43:22;;;;;;;;;52.67;45.67;;;;;23.41;54.68;101647.06;6158229;23;46111;-79
2023/07/06 08:45:52;;;;;;;;;53.33;45.33;;;;;23.61;55.29;101662.38;6160547;23;45271;-79
2023/07/06 08:48:23;;;;;;;;;59.67;50.33;;;;;23.62;53.36;101653.28;6162540;23;45254;-79
2023/07/06 08:50:52;;;;;;;;;53.33;45.67;;;;;23.79;54.25;101663.41;6187745;23;45489;-79
2023/07/06 08:53:21;;;;;;;;;59.50;49.50;;;;;23.97;53.42;101663.63;6160283;23;45695;-80
2023/07/06 08:55:51;;;;;;;;;58.50;48.50;;;;;24.10;54.51;101657.00;6189022;23;45238;-80
2023/07/06 08:58:29;;;;;;;;;55.33;47.33;;;;;24.29;56.54;101651.66;6190179;23;45218;-80
2023/07/06 09:01:16;;;;;;;;;65.00;53.25;;;;;24.52;51.89;101671.19;6189321;23;45500;-80
2023/07/06 09:03:48;;;;;;;;;61.50;51.00;;;;;24.67;52.68;101668.94;6186057;23;47159;-80
2023/07/06 09:06:18;;;;;;;;;64.25;53.50;;;;;24.72;53.38;101650.41;6186397;23;45241;-80
2023/07/06 09:08:45;;;;;;;;;81.20;76.80;;;;;24.64;48.19;101640.28;6185659;23;45607;-80
2023/07/06 09:11:14;;;;;;;;;91.00;82.75;;;;;24.87;49.16;101660.66;6183918;23;45475;-79
2023/07/06 09:13:50;;;;;;;;;76.80;67.00;;;;;24.92;51.28;101656.69;6159139;23;48343;-80
2023/07/06 09:16:19;;;;;;;;;71.20;60.40;;;;;25.17;50.93;101666.91;6159305;23;45285;-80
2023/07/06 09:18:48;;;;;;;;;74.60;64.40;;;;;25.31;51.26;101656.47;6159255;23;45321;-80
2023/07/06 09:21:16;;;;;;;;;102.00;79.60;;;;;25.26;50.39;101657.94;6186251;23;45349;-80
2023/07/06 09:23:45;;;;;;;;;147.20;51.80;;;;;25.16;49.69;101647.09;6185999;23;45877;-79
2023/07/06 09:26:21;;;;;;;;;2162.00;2146.80;;;;;25.25;48.74;101657.06;6185886;23;45303;-80
2023/07/06 09:28:47;;;;;;;;;1007.00;961.20;;;;;24.93;49.84;101656.56;6186087;23;45306;-80
2023/07/06 09:31:23;;;;;;;;;1982.25;1961.25;;;;;24.94;49.96;101652.81;6159474;23;45429;-80
2023/07/06 09:33:53;;;;;;;;;3542.00;3542.00;;;;;24.71;47.52;101663.06;6185899;23;46380;-79
2023/07/06 09:36:25;;;;;;;;;3519.20;3519.20;;;;;24.47;48.96;101665.34;6185499;23;45221;-79
2023/07/06 09:38:51;;;;;;;;;3524.80;3524.80;;;;;24.26;49.13;101657.34;6186227;23;45219;-79
2023/07/06 09:41:26;;;;;;;;;2172.60;2161.20;;;;;24.15;49.94;101665.56;6185799;23;45253;-79
2023/07/06 09:43:57;;;;;;;;;2572.00;2533.00;;;;;23.89;49.82;101648.09;6183429;23;48006;-79
2023/07/06 09:46:32;;;;;;;;;2962.80;2939.40;;;;;23.81;50.32;101656.06;6186305;23;45374;-79
2023/07/06 09:48:59;;;;;;;;;1329.60;1308.00;;;;;23.94;50.75;101639.59;6158890;23;45278;-79
2023/07/06 09:51:32;;;;;;;;;138.60;128.20;;;;;24.32;51.22;101640.56;6186147;23;45334;-78
2023/07/06 09:54:06;;;;;;;;;1162.20;1114.80;;;;;24.65;51.09;101641.13;6185921;23;45762;-80
2023/07/06 09:56:32;;;;;;;;;3329.20;3322.40;;;;;24.91;48.11;101638.72;6183572;23;45254;-79
2023/07/06 09:59:00;;;;;;;;;3441.00;3438.75;;;;;25.13;47.65;101646.56;6185718;23;45274;-80
2023/07/06 10:01:50;;;;;;;;;1544.40;1511.60;;;;;25.44;47.50;101644.44;6186175;23;45249;-79
2023/07/06 10:04:59;;;;;;;;;3427.50;3424.50;;;;;25.74;48.26;101647.78;6183752;23;45405;-80
2023/07/06 10:07:43;;;;;;;;;3497.00;3497.00;;;;;26.06;46.25;101641.91;6185760;23;45296;-80
2023/07/06 10:10:11;;;;;;;;;3555.00;3555.00;;;;;26.39;45.42;101640.44;6186350;23;45348;-80
2023/07/06 10:12:49;;;;;;;;;3514.00;3514.00;;;;;26.42;47.38;101610.28;6185729;23;45337;-80
2023/07/06 10:15:43;;;;;;;;;2512.25;2499.75;;;;;26.36;48.07;101600.06;6185626;23;45413;-80
2023/07/06 10:18:19;;;;;;;;;3479.20;3479.20;;;;;26.12;47.56;101568.06;6157974;23;45282;-80
2023/07/06 10:21:27;;;;;;;;;3299.60;3286.60;;;;;25.62;48.46;101556.03;6183951;23;45348;-80
2023/07/06 10:24:36;;;;;;;;;3524.20;3524.20;;;;;25.66;46.94;101560.09;6126117;23;45521;-80
2023/07/06 10:27:05;;;;;;;;;3522.67;3522.67;;;;;25.71;45.97;101564.09;6109258;23;47133;-80
2023/07/06 10:29:45;;;;;;;;;3524.67;3524.67;;;;;26.13;44.91;101583.34;6163441;23;45361;-80
2023/07/06 10:32:27;;;;;;;;;3549.33;3549.33;;;;;26.05;44.96;101536.31;6187699;23;45385;-80
2023/07/06 10:35:11;;;;;;;;;3498.67;3498.67;;;;;26.11;43.73;101544.66;6186569;23;45433;-80
2023/07/06 10:37:42;;;;;;;;;3520.00;3520.00;;;;;26.36;42.14;101591.91;6161735;23;46576;-80
2023/07/06 10:40:29;;;;;;;;;3547.33;3547.33;;;;;26.40;43.12;101549.91;6187716;23;45593;-80
2023/07/06 10:43:20;;;;;;;;;3542.00;3542.00;;;;;26.83;44.08;101614.25;6184208;23;45352;-80
2023/07/06 10:46:27;;;;;;;;;3506.67;3506.67;;;;;26.65;43.46;101572.66;6171794;23;45156;-81
2023/07/06 10:49:00;;;;;;;;;3514.67;3514.67;;;;;27.24;42.30;101627.09;6184225;23;46964;-80
2023/07/06 10:51:27;;;;;;;;;3525.33;3525.33;;;;;27.28;42.38;101600.47;6158676;23;45281;-81
2023/07/06 10:54:14;;;;;;;;;3484.00;3484.00;;;;;27.43;40.76;101604.25;6183950;23;45329;-81
2023/07/06 10:57:02;;;;;;;;;3506.67;3506.67;;;;;27.02;40.54;101554.31;6158487;23;45409;-81
2023/07/06 10:59:52;;;;;;;;;3485.33;3485.33;;;;;27.42;41.81;101576.25;6183610;23;47769;-81
2023/07/06 11:02:47;;;;;;;;;3498.00;3498.00;;;;;27.30;40.11;101574.81;6158492;23;45292;-81
2023/07/06 11:05:29;;;;;;;;;3502.67;3502.67;;;;;27.29;41.08;101540.50;6185565;23;45227;-80
2023/07/06 11:08:00;;;;;;;;;3502.67;3502.67;;;;;27.23;42.16;101557.47;6185001;23;45273;-80
2023/07/06 11:10:48;;;;;;;;;3497.33;3497.33;;;;;27.28;41.75;101616.75;6158622;23;47192;-80
2023/07/06 11:13:21;;;;;;;;;3496.67;3496.67;;;;;26.91;41.18;101598.00;6186007;23;45845;-80
2023/07/06 11:15:51;;;;;;;;;3482.67;3482.67;;;;;26.71;41.25;101591.88;6183863;23;45407;-80
2023/07/06 11:18:23;;;;;;;;;3504.67;3504.67;;;;;26.64;41.92;101614.38;6185243;23;45247;-80
2023/07/06 11:20:57;;;;;;;;;3507.33;3507.33;;;;;26.44;41.50;101610.16;6183907;23;46720;-81